createdAt,value
2023-02-12T00:02:30.724Z,4.91
2023-02-12T00:05:00.254Z,4.88
2023-02-12T00:07:31.748Z,5.05
2023-02-12T00:10:01.605Z,5.05
2023-02-12T00:12:32.269Z,4.95
2023-02-12T00:15:01.833Z,5.07
2023-02-12T00:17:31.599Z,5.09
2023-02-12T00:20:01.696Z,5.09
2023-02-12T00:22:31.507Z,5.09
2023-02-12T00:25:01.299Z,5.27
2023-02-12T00:27:35.502Z,5.26
2023-02-12T00:30:05.599Z,5.13
2023-02-12T00:32:36.986Z,5.28
2023-02-12T00:35:06.931Z,5.15
2023-02-12T00:37:36.991Z,5.15
2023-02-12T00:40:07.613Z,5.17
2023-02-12T00:42:37.645Z,5.17
2023-02-12T00:45:07.771Z,5.24
2023-02-12T00:47:37.529Z,5.11
2023-02-12T00:50:07.990Z,5.23
2023-02-12T00:52:38.114Z,5.38
2023-02-12T00:55:07.930Z,5.23
2023-02-12T00:57:37.746Z,5.27
2023-02-12T01:00:07.983Z,5.33
2023-02-12T01:02:38.761Z,5.13
2023-02-12T01:05:09.895Z,5.17
2023-02-12T01:07:40.689Z,5.19
2023-02-12T01:10:10.739Z,5.33
2023-02-12T01:12:40.412Z,5.08
2023-02-12T01:15:14.058Z,5.14
2023-02-12T01:17:44.445Z,5.14
2023-02-12T01:20:20.634Z,5.23
2023-02-12T01:22:51.796Z,5.21
2023-02-12T01:25:22.966Z,5.23
2023-02-12T01:27:54.720Z,5.31
2023-02-12T01:30:24.870Z,5.32
2023-02-12T01:32:55.580Z,5.21
2023-02-12T01:35:25.109Z,5.34
2023-02-12T01:37:57.425Z,5.24
2023-02-12T01:40:27.533Z,5.43
2023-02-12T01:42:58.817Z,5.26
2023-02-12T01:45:31.604Z,5.29
2023-02-12T01:48:02.471Z,5.29
2023-02-12T01:50:32.241Z,5.13
2023-02-12T01:53:02.693Z,5.06
2023-02-12T01:55:32.607Z,5.13
2023-02-12T01:58:05.443Z,5.07
2023-02-12T02:00:35.284Z,5.10
2023-02-12T02:03:06.433Z,5.25
2023-02-12T02:05:50.982Z,5.23
2023-02-12T02:08:20.614Z,5.11
2023-02-12T02:10:50.399Z,5.11
2023-02-12T02:13:38.719Z,5.07
2023-02-12T02:16:11.470Z,5.25
2023-02-12T02:18:47.256Z,5.22
2023-02-12T02:21:48.757Z,5.22
2023-02-12T02:24:39.663Z,5.14
2023-02-12T02:27:17.676Z,5.23
2023-02-12T02:30:06.716Z,5.08
2023-02-12T02:32:39.495Z,5.11
2023-02-12T02:35:18.444Z,5.19
2023-02-12T02:37:54.481Z,5.11
2023-02-12T02:40:30.266Z,5.10
2023-02-12T02:43:08.804Z,5.12
2023-02-12T02:45:56.240Z,5.04
2023-02-12T02:48:31.958Z,5.16
2023-02-12T02:51:08.298Z,5.18
2023-02-12T02:53:59.430Z,5.18
2023-02-12T02:56:30.911Z,5.18
2023-02-12T02:59:06.505Z,5.05
2023-02-12T03:01:39.387Z,5.10
2023-02-12T03:04:11.837Z,5.04
2023-02-12T03:06:53.241Z,5.10
2023-02-12T03:09:31.781Z,5.09
2023-02-12T03:12:04.882Z,5.06
2023-02-12T03:14:37.918Z,5.02
2023-02-12T03:17:10.466Z,5.11
2023-02-12T03:19:55.391Z,4.93
2023-02-12T03:22:27.926Z,4.93
2023-02-12T03:25:05.578Z,4.87
2023-02-12T03:27:38.240Z,4.96
2023-02-12T03:30:09.335Z,4.90
2023-02-12T03:32:42.564Z,5.05
2023-02-12T03:35:17.775Z,4.91
2023-02-12T03:37:59.757Z,4.88
2023-02-12T03:40:37.631Z,4.93
2023-02-12T03:43:19.102Z,4.85
2023-02-12T03:45:55.189Z,4.83
2023-02-12T03:48:30.608Z,4.82
2023-02-12T03:51:03.393Z,4.76
2023-02-12T03:53:33.572Z,4.91
2023-02-12T03:56:06.425Z,4.79
2023-02-12T03:58:38.006Z,4.82
2023-02-12T04:01:08.202Z,4.78
2023-02-12T04:03:37.872Z,4.77
2023-02-12T04:06:09.289Z,4.78
2023-02-12T04:08:38.752Z,4.73
2023-02-12T04:11:30.971Z,4.78
2023-02-12T04:14:09.553Z,4.90
2023-02-12T04:17:08.002Z,4.85
2023-02-12T04:20:06.284Z,4.75
2023-02-12T04:22:58.454Z,4.74
2023-02-12T04:25:54.385Z,4.87
2023-02-12T04:28:30.379Z,4.78
2023-02-12T04:31:29.254Z,4.81
2023-02-12T04:34:14.013Z,4.86
2023-02-12T04:36:49.449Z,4.75
2023-02-12T04:39:21.960Z,4.91
2023-02-12T04:41:52.845Z,4.88
2023-02-12T04:44:25.920Z,4.79
2023-02-12T04:46:55.768Z,4.71
2023-02-12T04:49:26.550Z,4.69
2023-02-12T04:51:56.801Z,4.74
2023-02-12T04:54:26.712Z,4.74
2023-02-12T04:56:56.528Z,4.66
2023-02-12T04:59:26.339Z,4.83
2023-02-12T05:01:56.122Z,4.75
2023-02-12T05:04:26.010Z,4.73
2023-02-12T05:06:55.781Z,4.83
2023-02-12T05:09:25.529Z,4.77
2023-02-12T05:11:55.299Z,4.85
2023-02-12T05:14:29.837Z,5.17
2023-02-12T05:16:59.886Z,4.79
2023-02-12T05:19:31.611Z,4.79
2023-02-12T05:22:01.444Z,4.75
2023-02-12T05:24:31.202Z,4.68
2023-02-12T05:27:01.038Z,4.65
2023-02-12T05:29:30.977Z,4.65
2023-02-12T05:32:01.830Z,4.77
2023-02-12T05:34:31.829Z,4.80
2023-02-12T05:37:01.675Z,4.86
2023-02-12T05:39:32.656Z,4.70
2023-02-12T05:42:02.462Z,4.67
2023-02-12T05:44:32.272Z,4.66
2023-02-12T05:47:02.047Z,4.86
2023-02-12T05:49:31.806Z,4.80
2023-02-12T05:52:01.578Z,4.76
2023-02-12T05:54:32.482Z,4.85
2023-02-12T05:57:04.254Z,4.72
2023-02-12T05:59:34.080Z,4.72
2023-02-12T06:02:03.842Z,4.73
2023-02-12T06:04:33.658Z,4.80
2023-02-12T06:07:03.753Z,4.80
2023-02-12T06:09:36.433Z,4.94
2023-02-12T06:12:06.740Z,4.81
2023-02-12T06:14:38.454Z,4.81
2023-02-12T06:17:08.378Z,4.88
2023-02-12T06:19:38.396Z,4.79
2023-02-12T06:22:07.936Z,4.78
2023-02-12T06:24:37.711Z,4.76
2023-02-12T06:27:07.488Z,4.71
2023-02-12T06:29:37.229Z,4.87
2023-02-12T06:32:08.691Z,4.79
2023-02-12T06:34:38.423Z,4.66
2023-02-12T06:37:08.201Z,4.69
2023-02-12T06:39:39.119Z,4.61
2023-02-12T06:42:08.992Z,4.79
2023-02-12T06:44:38.559Z,4.74
2023-02-12T06:47:08.337Z,4.76
2023-02-12T06:49:38.409Z,4.73
2023-02-12T06:52:08.181Z,4.70
2023-02-12T06:54:37.962Z,4.63
2023-02-12T06:57:07.589Z,4.62
2023-02-12T06:59:37.889Z,4.66
2023-02-12T07:02:07.487Z,4.78
2023-02-12T07:04:39.356Z,4.76
2023-02-12T07:07:09.100Z,4.75
2023-02-12T07:09:38.964Z,4.70
2023-02-12T07:12:08.954Z,4.67
2023-02-12T07:14:40.575Z,4.66
2023-02-12T07:17:10.466Z,4.65
2023-02-12T07:19:40.228Z,4.74
2023-02-12T07:22:10.061Z,4.68
2023-02-12T07:24:40.122Z,4.82
2023-02-12T07:27:09.664Z,4.95
2023-02-12T07:29:39.421Z,4.95
2023-02-12T07:32:09.067Z,4.92
2023-02-12T07:34:38.839Z,4.92
2023-02-12T07:37:08.799Z,4.98
2023-02-12T07:39:39.464Z,5.08
2023-02-12T07:42:09.548Z,5.03
2023-02-12T07:44:40.752Z,4.93
2023-02-12T07:47:10.220Z,5.00
2023-02-12T07:49:39.997Z,5.06
2023-02-12T07:52:12.151Z,5.08
2023-02-12T07:54:41.017Z,5.09
2023-02-12T07:57:13.162Z,5.13
2023-02-12T07:59:42.904Z,5.17
2023-02-12T08:02:13.583Z,5.21
2023-02-12T08:04:43.492Z,5.21
2023-02-12T08:07:13.036Z,5.21
2023-02-12T08:09:42.936Z,5.08
2023-02-12T08:12:12.552Z,5.25
2023-02-12T08:14:43.327Z,5.39
2023-02-12T08:17:14.156Z,5.30
2023-02-12T08:19:43.721Z,5.30
2023-02-12T08:22:14.582Z,5.31
2023-02-12T08:24:45.615Z,5.37
2023-02-12T08:27:16.035Z,5.44
2023-02-12T08:29:45.563Z,5.37
2023-02-12T08:32:17.039Z,5.40
2023-02-12T08:34:46.815Z,5.36
2023-02-12T08:37:16.586Z,5.38
2023-02-12T08:39:46.396Z,5.36
2023-02-12T08:42:16.299Z,5.45
2023-02-12T08:44:46.351Z,5.57
2023-02-12T08:47:16.119Z,5.65
2023-02-12T08:49:45.882Z,5.64
2023-02-12T08:52:15.668Z,5.71
2023-02-12T08:54:45.430Z,5.79
2023-02-12T08:57:15.018Z,5.78
2023-02-12T08:59:44.789Z,5.68
2023-02-12T09:02:14.672Z,5.72
2023-02-12T09:04:44.471Z,5.65
2023-02-12T09:07:14.242Z,5.65
2023-02-12T09:09:44.018Z,5.84
2023-02-12T09:12:13.582Z,5.83
2023-02-12T09:14:44.409Z,5.69
2023-02-12T09:17:14.093Z,5.67
2023-02-12T09:19:44.559Z,5.68
2023-02-12T09:22:16.231Z,5.76
2023-02-12T09:24:46.951Z,5.80
2023-02-12T09:27:16.534Z,5.97
2023-02-12T09:29:46.293Z,6.01
2023-02-12T09:32:16.067Z,6.11
2023-02-12T09:34:45.816Z,6.14
2023-02-12T09:37:17.609Z,6.25
2023-02-12T09:39:50.153Z,6.29
2023-02-12T09:42:22.087Z,6.36
2023-02-12T09:44:55.805Z,6.43
2023-02-12T09:47:34.140Z,6.45
2023-02-12T09:50:18.535Z,6.55
2023-02-12T09:52:49.628Z,6.73
2023-02-12T09:55:19.116Z,6.73
2023-02-12T09:57:49.342Z,6.88
2023-02-12T10:00:31.414Z,7.54
2023-02-12T10:03:06.889Z,7.55
2023-02-12T10:05:48.156Z,7.55
2023-02-12T10:08:40.213Z,7.45
2023-02-12T10:11:15.784Z,7.38
2023-02-12T10:13:52.407Z,7.52
2023-02-12T10:16:49.832Z,7.77
2023-02-12T10:19:22.711Z,7.88
2023-02-12T10:21:56.552Z,8.05
2023-02-12T10:24:38.266Z,8.61
2023-02-12T10:27:19.630Z,8.99
2023-02-12T10:29:50.253Z,9.01
2023-02-12T10:32:28.925Z,9.22
2023-02-12T10:35:05.479Z,9.28
2023-02-12T10:38:03.569Z,9.74
2023-02-12T10:40:37.584Z,9.74
2023-02-12T10:43:11.879Z,9.56
2023-02-12T10:45:43.984Z,9.56
2023-02-12T10:48:37.862Z,9.85
2023-02-12T10:51:16.527Z,10.27
2023-02-12T10:53:48.499Z,10.42
2023-02-12T10:56:21.308Z,9.97
2023-02-12T10:58:56.855Z,9.61
2023-02-12T11:01:29.969Z,9.38
2023-02-12T11:04:03.755Z,9.17
2023-02-12T11:06:34.106Z,9.12
2023-02-12T11:09:05.324Z,9.35
2023-02-12T11:11:35.561Z,9.84
2023-02-12T11:14:10.413Z,10.06
2023-02-12T11:16:43.229Z,10.07
2023-02-12T11:19:28.309Z,10.49
2023-02-12T11:22:18.863Z,10.39
2023-02-12T11:24:54.527Z,10.17
2023-02-12T11:27:28.719Z,10.01
2023-02-12T11:30:18.341Z,9.75
2023-02-12T11:32:50.983Z,9.06
2023-02-12T11:35:27.914Z,8.98
2023-02-12T11:38:00.709Z,8.98
2023-02-12T11:40:36.431Z,8.90
2023-02-12T11:43:10.710Z,8.90
2023-02-12T11:45:47.936Z,8.80
2023-02-12T11:48:23.661Z,8.44
2023-02-12T11:50:59.420Z,8.43
2023-02-12T11:53:40.087Z,8.53
2023-02-12T11:56:12.775Z,8.44
2023-02-12T11:58:44.571Z,8.31
2023-02-12T12:01:25.976Z,8.41
2023-02-12T12:04:16.302Z,8.24
2023-02-12T12:06:55.018Z,8.27
2023-02-12T12:09:42.587Z,8.37
2023-02-12T12:12:24.528Z,8.82
2023-02-12T12:15:15.400Z,9.32
2023-02-12T12:18:27.252Z,9.84
2023-02-12T12:21:05.055Z,9.90
2023-02-12T12:23:46.923Z,9.71
2023-02-12T12:26:26.077Z,9.22
2023-02-12T12:29:16.583Z,8.85
2023-02-12T12:31:49.227Z,8.55
2023-02-12T12:34:21.834Z,8.44
2023-02-12T12:37:19.011Z,8.41
2023-02-12T12:40:02.164Z,8.46
2023-02-12T12:42:49.026Z,8.43
2023-02-12T12:45:39.824Z,8.46
2023-02-12T12:48:27.317Z,8.44
2023-02-12T12:51:11.995Z,8.42
2023-02-12T12:54:18.187Z,8.40
2023-02-12T12:57:07.320Z,8.56
2023-02-12T12:59:42.670Z,8.67
2023-02-12T13:02:33.619Z,8.31
2023-02-12T13:05:36.866Z,8.31
2023-02-12T13:08:28.066Z,8.37
2023-02-12T13:11:04.541Z,8.32
2023-02-12T13:13:40.639Z,8.24
2023-02-12T13:16:28.329Z,8.24
2023-02-12T13:19:10.175Z,8.30
2023-02-12T13:21:43.073Z,8.27
2023-02-12T13:24:24.602Z,8.38
2023-02-12T13:26:58.076Z,8.25
2023-02-12T13:29:34.285Z,8.26
2023-02-12T13:32:27.129Z,8.26
2023-02-12T13:35:00.219Z,8.29
2023-02-12T13:37:50.968Z,8.11
2023-02-12T13:40:29.509Z,8.19
2023-02-12T13:43:17.367Z,8.12
2023-02-12T13:45:53.221Z,8.15
2023-02-12T13:48:42.083Z,8.02
2023-02-12T13:51:20.979Z,7.89
2023-02-12T13:54:06.010Z,7.98
2023-02-12T13:56:44.946Z,7.82
2023-02-12T13:59:35.499Z,7.89
2023-02-12T14:02:32.156Z,7.83
2023-02-12T14:05:05.248Z,8.01
2023-02-12T14:07:52.194Z,8.12
2023-02-12T14:10:30.622Z,8.10
2023-02-12T14:13:12.348Z,7.89
2023-02-12T14:15:45.700Z,7.89
2023-02-12T14:18:26.932Z,8.05
2023-02-12T14:21:31.680Z,7.97
2023-02-12T14:24:04.330Z,7.78
2023-02-12T14:26:38.963Z,7.86
2023-02-12T14:29:11.810Z,7.84
2023-02-12T14:31:42.625Z,7.71
2023-02-12T14:34:16.693Z,7.77
2023-02-12T14:36:49.188Z,7.84
2023-02-12T14:39:25.091Z,7.94
2023-02-12T14:41:58.721Z,7.79
2023-02-12T14:44:31.547Z,7.70
2023-02-12T14:47:05.117Z,7.69
2023-02-12T14:49:42.324Z,7.68
2023-02-12T14:52:19.930Z,7.68
2023-02-12T14:54:52.986Z,7.71
2023-02-12T14:57:31.321Z,7.70
2023-02-12T15:00:18.923Z,7.74
2023-02-12T15:03:00.576Z,7.83
2023-02-12T15:05:37.320Z,7.54
2023-02-12T15:08:10.005Z,7.52
2023-02-12T15:10:42.831Z,7.37
2023-02-12T15:13:36.505Z,7.41
2023-02-12T15:16:29.714Z,7.52
2023-02-12T15:19:26.895Z,7.25
2023-02-12T15:21:57.124Z,7.40
2023-02-12T15:24:28.332Z,7.24
2023-02-12T15:27:01.039Z,7.23
2023-02-12T15:29:49.455Z,7.15
2023-02-12T15:32:28.686Z,7.29
2023-02-12T15:34:58.607Z,7.39
2023-02-12T15:37:31.505Z,7.15
2023-02-12T15:40:04.106Z,7.09
2023-02-12T15:42:38.424Z,7.07
2023-02-12T15:45:17.048Z,7.01
2023-02-12T15:47:49.236Z,7.11
2023-02-12T15:50:19.503Z,7.08
2023-02-12T15:52:52.313Z,7.28
2023-02-12T15:55:27.304Z,7.04
2023-02-12T15:58:02.456Z,7.05
2023-02-12T16:00:44.062Z,7.03
2023-02-12T16:03:26.154Z,6.73
2023-02-12T16:06:04.611Z,6.71
2023-02-12T16:08:37.528Z,6.71
2023-02-12T16:11:15.913Z,6.67
2023-02-12T16:13:52.473Z,6.65
2023-02-12T16:16:30.638Z,6.67
2023-02-12T16:19:23.559Z,6.62
2023-02-12T16:21:56.387Z,6.79
2023-02-12T16:24:35.143Z,6.51
2023-02-12T16:27:19.955Z,6.37
2023-02-12T16:29:53.164Z,6.34
2023-02-12T16:32:39.929Z,6.42
2023-02-12T16:35:16.680Z,6.40
2023-02-12T16:37:52.389Z,6.38
2023-02-12T16:40:26.110Z,6.30
2023-02-12T16:43:04.615Z,6.30
2023-02-12T16:45:39.051Z,6.48
2023-02-12T16:48:25.596Z,6.52
2023-02-12T16:50:59.852Z,6.49
2023-02-12T16:53:33.537Z,6.33
2023-02-12T16:56:05.593Z,6.42
2023-02-12T16:58:35.655Z,6.14
2023-02-12T17:01:06.771Z,6.34
2023-02-12T17:03:38.498Z,6.11
2023-02-12T17:06:08.373Z,6.00
2023-02-12T17:08:38.158Z,6.23
2023-02-12T17:11:10.734Z,6.12
2023-02-12T17:13:40.220Z,6.18
2023-02-12T17:16:12.728Z,5.98
2023-02-12T17:18:43.172Z,5.98
2023-02-12T17:21:35.117Z,6.04
2023-02-12T17:24:10.166Z,5.96
2023-02-12T17:26:50.827Z,5.88
2023-02-12T17:29:26.496Z,5.84
2023-02-12T17:32:44.973Z,6.35
2023-02-12T17:35:17.542Z,6.05
2023-02-12T17:37:48.113Z,6.12
2023-02-12T17:40:17.820Z,5.90
2023-02-12T17:42:47.897Z,5.96
2023-02-12T17:45:17.981Z,5.78
2023-02-12T17:47:47.838Z,5.82
2023-02-12T17:50:17.910Z,5.86
2023-02-12T17:52:47.848Z,5.63
2023-02-12T17:55:17.808Z,5.85
2023-02-12T17:57:47.577Z,5.87
2023-02-12T18:00:18.154Z,5.88
2023-02-12T18:02:53.616Z,5.77
2023-02-12T18:05:26.690Z,5.86
2023-02-12T18:08:09.304Z,5.55
2023-02-12T18:10:42.650Z,5.55
2023-02-12T18:13:13.937Z,5.50
2023-02-12T18:15:42.842Z,5.62
2023-02-12T18:18:12.807Z,5.46
2023-02-12T18:20:42.539Z,5.61
2023-02-12T18:23:12.565Z,5.72
2023-02-12T18:25:45.724Z,5.63
2023-02-12T18:28:15.559Z,5.46
2023-02-12T18:30:45.480Z,5.37
2023-02-12T18:33:16.892Z,5.37
2023-02-12T18:36:04.661Z,5.33
2023-02-12T18:38:38.529Z,5.49
2023-02-12T18:41:16.283Z,5.55
2023-02-12T18:43:49.140Z,5.56
2023-02-12T18:46:24.446Z,5.55
2023-02-12T18:48:55.556Z,5.45
2023-02-12T18:51:27.933Z,5.60
2023-02-12T18:54:03.058Z,5.67
2023-02-12T18:56:36.000Z,5.75
2023-02-12T18:59:07.930Z,5.64
2023-02-12T19:01:38.103Z,5.38
2023-02-12T19:04:09.358Z,5.47
2023-02-12T19:06:46.475Z,5.32
2023-02-12T19:09:20.191Z,5.45
2023-02-12T19:11:52.019Z,5.40
2023-02-12T19:14:23.783Z,5.43
2023-02-12T19:16:54.023Z,5.37
2023-02-12T19:19:24.071Z,5.55
2023-02-12T19:21:53.806Z,5.65
2023-02-12T19:24:23.317Z,5.46
2023-02-12T19:26:54.483Z,5.45
2023-02-12T19:29:24.824Z,5.65
2023-02-12T19:31:54.871Z,5.52
2023-02-12T19:34:26.046Z,5.51
2023-02-12T19:36:55.534Z,5.66
2023-02-12T19:39:25.950Z,5.39
2023-02-12T19:41:56.270Z,5.32
2023-02-12T19:44:26.907Z,5.46
2023-02-12T19:46:57.984Z,5.43
2023-02-12T19:49:29.486Z,5.40
2023-02-12T19:51:59.430Z,5.60
2023-02-12T19:54:29.288Z,5.47
2023-02-12T19:56:59.120Z,5.37
2023-02-12T19:59:28.950Z,5.26
2023-02-12T20:01:58.736Z,5.24
2023-02-12T20:04:28.558Z,5.22
2023-02-12T20:07:02.520Z,5.38
2023-02-12T20:09:32.449Z,5.44
2023-02-12T20:12:02.185Z,5.37
2023-02-12T20:14:33.020Z,5.34
2023-02-12T20:17:04.552Z,5.15
2023-02-12T20:19:34.421Z,5.24
2023-02-12T20:22:05.044Z,5.25
2023-02-12T20:24:35.386Z,5.19
2023-02-12T20:27:07.150Z,5.27
2023-02-12T20:29:37.346Z,5.16
2023-02-12T20:32:09.377Z,5.15
2023-02-12T20:34:50.436Z,5.17
2023-02-12T20:37:13.953Z,5.12
2023-02-12T20:39:43.583Z,5.44
2023-02-12T20:42:13.209Z,5.44
2023-02-12T20:44:42.988Z,5.29
2023-02-12T20:47:12.694Z,5.21
2023-02-12T20:49:42.574Z,4.90
2023-02-12T20:52:12.394Z,4.85
2023-02-12T20:54:42.234Z,4.84
2023-02-12T20:57:12.181Z,4.84
2023-02-12T20:59:42.153Z,4.92
2023-02-12T21:02:13.220Z,4.77
2023-02-12T21:04:43.419Z,4.70
2023-02-12T21:07:14.025Z,4.68
2023-02-12T21:09:45.093Z,4.68
2023-02-12T21:12:14.937Z,4.77
2023-02-12T21:14:45.630Z,4.85
2023-02-12T21:17:16.014Z,4.92
2023-02-12T21:19:45.986Z,4.85
2023-02-12T21:22:15.461Z,4.89
2023-02-12T21:24:46.146Z,4.86
2023-02-12T21:27:15.766Z,4.81
2023-02-12T21:29:46.442Z,4.80
2023-02-12T21:32:16.732Z,5.04
2023-02-12T21:34:50.048Z,4.97
2023-02-12T21:37:19.746Z,5.09
2023-02-12T21:39:49.554Z,5.01
2023-02-12T21:42:19.187Z,4.85
2023-02-12T21:44:49.933Z,4.85
2023-02-12T21:47:19.869Z,4.77
2023-02-12T21:49:51.954Z,4.81
2023-02-12T21:52:21.020Z,4.79
2023-02-12T21:54:51.757Z,4.83
2023-02-12T21:57:23.420Z,4.80
2023-02-12T21:59:53.195Z,4.73
2023-02-12T22:02:23.956Z,4.94
2023-02-12T22:04:55.717Z,5.07
2023-02-12T22:07:26.419Z,5.07
2023-02-12T22:09:57.341Z,5.25
2023-02-12T22:12:28.741Z,5.01
2023-02-12T22:14:57.489Z,5.00
2023-02-12T22:17:26.896Z,4.94
2023-02-12T22:19:56.676Z,4.79
2023-02-12T22:22:26.606Z,4.79
2023-02-12T22:24:56.474Z,4.94
2023-02-12T22:27:26.300Z,4.86
2023-02-12T22:29:56.310Z,4.86
2023-02-12T22:32:26.839Z,4.92
2023-02-12T22:35:03.024Z,4.91
2023-02-12T22:37:33.925Z,4.81
2023-02-12T22:40:03.389Z,4.81
2023-02-12T22:42:33.354Z,4.84
2023-02-12T22:45:03.254Z,4.78
2023-02-12T22:47:34.976Z,4.80
2023-02-12T22:50:04.962Z,4.85
2023-02-12T22:52:35.054Z,5.02
2023-02-12T22:55:05.035Z,4.80
2023-02-12T22:57:38.038Z,4.89
2023-02-12T23:00:10.266Z,4.92
2023-02-12T23:02:42.129Z,4.97
2023-02-12T23:05:12.829Z,4.88
2023-02-12T23:07:42.843Z,5.19
2023-02-12T23:10:12.977Z,5.11
2023-02-12T23:12:42.753Z,5.03
2023-02-12T23:15:12.545Z,5.03
2023-02-12T23:17:42.359Z,4.84
2023-02-12T23:20:13.424Z,4.83
2023-02-12T23:22:42.250Z,4.63
2023-02-12T23:25:12.027Z,4.63
2023-02-12T23:27:42.671Z,4.83
2023-02-12T23:30:12.639Z,4.72
2023-02-12T23:32:42.688Z,4.86
2023-02-12T23:35:12.472Z,4.93
2023-02-12T23:37:42.239Z,4.93
2023-02-12T23:40:12.691Z,4.94
2023-02-12T23:42:46.488Z,4.99
2023-02-12T23:45:16.400Z,4.88
2023-02-12T23:47:48.109Z,4.88
2023-02-12T23:50:18.127Z,4.68
2023-02-12T23:52:47.874Z,4.60
2023-02-12T23:55:19.534Z,4.74
2023-02-12T23:57:50.415Z,4.62
